aviador You're here:

KAZO Decoded Metar

KALAMAZOO in MI, USA
Report Time2018-05-27 00:53:00
UTC Time2018-05-27 01:03:16
Flight Rules vfr VFR
Wind280° at 04 kt
W.Decomp.*RWY 27: 3.9 kt HW 0.9 kt RCW
RWY 23: 2.4 kt HW 3.2 kt RCW
RWY 35: 1.6 kt HW 3.7 kt LCW
W.Rank280° ranks 12
Current wind is below 280° avg. (8.8)
Visibility9999 m
Phenomena:N/A
Clouds:N/A
Expected CloudBase > 4,400 ft AGL from Temp-Dew spread
CeilingNone
Temp27°C (ISA +14)
Dew Point16°C (51% RH)
Heat Index27.5°C
QNH1008 hPa
Density Alt2,890 ft
Elevation892 ft
Report Wrong Elevation
Raw Report
KAZO 270053Z 28004KT 10SM CLR 27/16 A2978 RMK AO2 SLP079
T02670156=

Extra information for KAZO:More info

Metar Taf Metar & Taf Last 4 Metars F.Rules Stats Wind Profile Meteogram Temp Stats Airport Information Weather charts Add Link Nearby VenuesMetar ALERT Operation Metar Decoded Social comments

AIRNAV info for KAZO